Time;durP1;ratioP1;P1;durP2;ratioP2;P2;SDS_P1;SDS_P2;PMS_P1;PMS_P2;Temp;Humidity;BMP_temperature;BMP_pressure;BME280_temperature;BME280_humidity;BME280_pressure;Samples;Min_cycle;Max_cycle;Signal;HPM_P1;HPM_P2
2024/01/02 00:04:45;;;;;;;;;;;;;;;17.33;43.32;98481.91;10324768;28;810;-84
2024/01/02 00:09:41;;;;;;;;;;;;;;;17.32;43.41;98451.25;10325479;28;1949;-84
2024/01/02 00:14:37;;;;;;;;;;;;;;;17.30;43.18;98440.81;10325165;28;1000;-84
2024/01/02 00:19:33;;;;;;;;;;;;;;;17.29;43.28;98415.44;10324439;28;771;-84
2024/01/02 00:24:28;;;;;;;;;;;;;;;17.27;43.23;98409.41;10324971;28;833;-84
2024/01/02 00:29:24;;;;;;;;;;;;;;;17.31;43.38;98400.34;10324791;28;1956;-84
2024/01/02 00:34:20;;;;;;;;;;;;;;;17.28;43.35;98382.13;10324774;28;858;-84
2024/01/02 00:39:16;;;;;;;;;;;;;;;17.28;43.31;98365.47;10324834;28;1152;-85
2024/01/02 00:44:12;;;;;;;;;;;;;;;17.26;43.27;98355.03;10325149;28;903;-85
2024/01/02 00:49:08;;;;;;;;;;;;;;;17.25;43.45;98336.72;10324402;28;1983;-85
2024/01/02 00:54:04;;;;;;;;;;;;;;;17.24;43.44;98330.59;10324455;28;925;-84
2024/01/02 00:59:01;;;;;;;;;;;;;;;17.23;43.45;98312.25;10324870;28;815;-84
2024/01/02 01:03:56;;;;;;;;;;;;;;;17.21;43.54;98295.72;10324936;28;938;-84
2024/01/02 01:08:53;;;;;;;;;;;;;;;17.19;43.58;98280.03;10324441;28;1889;-85
2024/01/02 01:13:49;;;;;;;;;;;;;;;17.18;43.62;98265.16;10324628;28;936;-84
2024/01/02 01:18:45;;;;;;;;;;;;;;;17.19;43.60;98256.31;10330122;28;921;-85
2024/01/02 01:23:40;;;;;;;;;;;;;;;17.18;43.60;98246.72;10330925;28;949;-84
2024/01/02 01:28:36;;;;;;;;;;;;;;;17.15;43.77;98215.31;10330200;28;1951;-84
2024/01/02 01:33:32;;;;;;;;;;;;;;;17.13;43.79;98209.31;10330683;28;783;-84
2024/01/02 01:38:28;;;;;;;;;;;;;;;17.14;43.72;98184.69;10330424;28;1458;-84
2024/01/02 01:43:24;;;;;;;;;;;;;;;17.15;43.59;98181.09;10330216;28;838;-84
2024/01/02 01:48:21;;;;;;;;;;;;;;;17.14;43.75;98165.44;10329545;28;1967;-84
2024/01/02 01:53:17;;;;;;;;;;;;;;;17.12;43.56;98156.78;10329886;28;850;-84
2024/01/02 01:58:13;;;;;;;;;;;;;;;17.09;43.60;98139.41;10330272;28;888;-85
2024/01/02 02:03:09;;;;;;;;;;;;;;;17.11;43.54;98136.63;10330038;28;882;-85
2024/01/02 02:08:05;;;;;;;;;;;;;;;17.11;43.59;98123.47;10329491;28;1897;-85
2024/01/02 02:13:01;;;;;;;;;;;;;;;17.09;43.59;98102.53;10329069;28;818;-84
2024/01/02 02:17:57;;;;;;;;;;;;;;;17.07;43.56;98093.91;10329483;28;833;-85
2024/01/02 02:22:53;;;;;;;;;;;;;;;17.04;43.61;98067.78;10329289;28;862;-85
2024/01/02 02:27:48;;;;;;;;;;;;;;;17.06;43.75;98058.84;10329081;28;1897;-85
2024/01/02 02:32:44;;;;;;;;;;;;;;;17.06;43.59;98053.56;10329588;28;874;-84
2024/01/02 02:37:40;;;;;;;;;;;;;;;17.07;43.49;98039.44;10328433;28;1265;-84
2024/01/02 02:42:36;;;;;;;;;;;;;;;17.03;43.66;98013.47;10327375;28;1167;-84
2024/01/02 02:47:32;;;;;;;;;;;;;;;17.03;43.62;98005.56;10327612;28;1919;-84
2024/01/02 02:52:28;;;;;;;;;;;;;;;17.05;43.84;97987.84;10328337;28;803;-84
2024/01/02 02:57:24;;;;;;;;;;;;;;;17.03;43.76;97973.97;10327241;28;917;-84
2024/01/02 03:02:20;;;;;;;;;;;;;;;17.01;43.64;97955.66;10327761;28;849;-84
2024/01/02 03:07:16;;;;;;;;;;;;;;;17.01;43.90;97925.84;10326856;28;1961;-84
2024/01/02 03:12:12;;;;;;;;;;;;;;;17.02;43.77;97909.94;10326939;28;974;-84
2024/01/02 03:17:08;;;;;;;;;;;;;;;17.02;43.63;97901.22;10326485;28;854;-84
2024/01/02 03:22:04;;;;;;;;;;;;;;;17.00;43.88;97888.19;10327704;28;785;-85
2024/01/02 03:27:00;;;;;;;;;;;;;;;16.99;43.75;97862.78;10326226;28;1890;-85
2024/01/02 03:31:56;;;;;;;;;;;;;;;17.01;43.67;97844.28;10326199;28;951;-84
2024/01/02 03:36:52;;;;;;;;;;;;;;;17.01;43.86;97831.09;10326411;28;1128;-85
2024/01/02 03:41:48;;;;;;;;;;;;;;;16.99;43.85;97804.88;10324986;28;880;-84
2024/01/02 03:46:44;;;;;;;;;;;;;;;16.97;43.65;97809.41;10326986;28;908;-85
2024/01/02 03:51:40;;;;;;;;;;;;;;;16.99;43.63;97791.72;10326535;28;1961;-85
2024/01/02 03:56:35;;;;;;;;;;;;;;;17.00;43.75;97764.47;10326090;28;964;-85
2024/01/02 04:01:31;;;;;;;;;;;;;;;16.99;43.73;97756.69;10324894;28;818;-85
2024/01/02 04:06:27;;;;;;;;;;;;;;;16.96;43.83;97755.09;10325354;28;785;-84
2024/01/02 04:11:23;;;;;;;;;;;;;;;16.97;43.87;97727.00;10324357;28;1886;-85
2024/01/02 04:16:19;;;;;;;;;;;;;;;16.97;43.76;97709.41;10325314;28;1123;-85
2024/01/02 04:21:15;;;;;;;;;;;;;;;16.97;43.67;97675.19;10326303;28;918;-84
2024/01/02 04:26:11;;;;;;;;;;;;;;;16.94;43.60;97662.25;10324903;28;989;-85
2024/01/02 04:31:08;;;;;;;;;;;;;;;16.93;43.76;97636.91;10324781;28;1949;-85
2024/01/02 04:36:03;;;;;;;;;;;;;;;16.96;43.72;97622.69;10324144;28;1092;-84
2024/01/02 04:40:59;;;;;;;;;;;;;;;16.98;43.67;97586.56;10324745;28;786;-85
2024/01/02 04:45:55;;;;;;;;;;;;;;;17.05;43.53;97585.97;10324476;28;897;-85
2024/01/02 04:50:51;;;;;;;;;;;;;;;17.12;43.39;97577.66;10327361;28;1961;-85
2024/01/02 04:55:47;;;;;;;;;;;;;;;17.13;43.31;97548.56;10332038;28;853;-84
2024/01/02 05:00:43;;;;;;;;;;;;;;;17.18;43.29;97535.88;10331868;28;870;-84
2024/01/02 05:05:39;;;;;;;;;;;;;;;17.20;43.27;97514.72;10332280;28;873;-85
2024/01/02 05:10:35;;;;;;;;;;;;;;;17.21;43.43;97504.09;10331451;28;1889;-84
2024/01/02 05:15:30;;;;;;;;;;;;;;;17.26;43.26;97507.19;10331319;28;773;-85
2024/01/02 05:20:26;;;;;;;;;;;;;;;17.29;43.12;97463.97;10331168;28;947;-85
2024/01/02 05:25:22;;;;;;;;;;;;;;;17.32;43.18;97463.78;10330984;28;810;-85
2024/01/02 05:30:18;;;;;;;;;;;;;;;17.37;43.01;97466.03;10330849;28;1955;-85
2024/01/02 05:35:14;;;;;;;;;;;;;;;17.37;43.10;97468.66;10331268;28;970;-84
2024/01/02 05:40:10;;;;;;;;;;;;;;;17.38;43.11;97444.84;10330309;28;1437;-84
2024/01/02 05:45:06;;;;;;;;;;;;;;;17.40;43.14;97465.81;10330345;28;929;-85
2024/01/02 05:50:02;;;;;;;;;;;;;;;17.38;43.15;97442.22;10329440;28;1906;-85
2024/01/02 05:54:58;;;;;;;;;;;;;;;17.40;43.16;97436.84;10330412;28;866;-85
2024/01/02 05:59:54;;;;;;;;;;;;;;;17.42;43.22;97453.34;10329724;28;947;-85
2024/01/02 06:04:50;;;;;;;;;;;;;;;17.40;43.14;97407.88;10328651;28;769;-85
2024/01/02 06:09:46;;;;;;;;;;;;;;;17.40;42.81;97428.94;10329202;28;1955;-85
2024/01/02 06:14:41;;;;;;;;;;;;;;;17.43;43.14;97429.53;10329941;28;999;-85
2024/01/02 06:19:37;;;;;;;;;;;;;;;17.41;43.19;97420.91;10328893;28;774;-85
2024/01/02 06:24:33;;;;;;;;;;;;;;;17.44;43.24;97420.66;10328672;28;887;-85
2024/01/02 06:29:29;;;;;;;;;;;;;;;17.47;42.95;97414.31;10329029;28;1953;-85
2024/01/02 06:34:25;;;;;;;;;;;;;;;17.45;43.06;97400.44;10328244;28;968;-84
2024/01/02 06:39:21;;;;;;;;;;;;;;;17.46;43.13;97415.28;10328367;28;1267;-85
2024/01/02 06:44:17;;;;;;;;;;;;;;;17.47;43.13;97409.03;10328820;28;901;-85
2024/01/02 06:49:13;;;;;;;;;;;;;;;17.47;43.15;97430.09;10327605;28;1914;-75
2024/01/02 06:54:08;;;;;;;;;;;;;;;17.47;43.14;97409.88;10327461;28;806;-76
2024/01/02 06:59:04;;;;;;;;;;;;;;;17.50;43.25;97432.50;10327897;28;806;-75
2024/01/02 07:04:00;;;;;;;;;;;;;;;17.51;43.27;97437.66;10327753;28;959;-75
2024/01/02 07:08:56;;;;;;;;;;;;;;;17.53;43.39;97454.19;10326928;28;1882;-75
2024/01/02 07:13:52;;;;;;;;;;;;;;;17.55;43.53;97445.31;10327001;28;811;-75
2024/01/02 07:18:48;;;;;;;;;;;;;;;17.59;43.19;97452.84;10326564;28;893;-75
2024/01/02 07:23:44;;;;;;;;;;;;;;;17.60;43.47;97443.16;10326379;28;964;-75
2024/01/02 07:28:40;;;;;;;;;;;;;;;17.54;43.62;97441.84;10326107;28;1905;-75
2024/01/02 07:33:36;;;;;;;;;;;;;;;17.59;43.50;97454.66;10326689;28;992;-75
2024/01/02 07:38:31;;;;;;;;;;;;;;;17.61;43.50;97464.13;10325317;28;1257;-75
2024/01/02 07:43:30;;;;;;;;;;;;;;;17.64;43.62;97458.59;10326381;28;883;-75
2024/01/02 07:48:26;;;;;;;;;;;;;;;17.59;43.77;97462.56;10326214;28;2038;-75
2024/01/02 07:53:22;;;;;;;;;;;;;;;17.61;43.84;97485.19;10325857;28;956;-75
2024/01/02 07:58:18;;;;;;;;;;;;;;;17.62;43.79;97486.84;10322431;28;1045;-75
2024/01/02 08:03:14;;;;;;;;;;;;;;;17.65;43.73;97486.59;10325811;28;888;-75
2024/01/02 08:08:10;;;;;;;;;;;;;;;17.58;44.16;97488.06;10324775;28;1957;-74
2024/01/02 08:13:06;;;;;;;;;;;;;;;17.63;44.04;97483.28;10325332;28;814;-77
2024/01/02 08:18:02;;;;;;;;;;;;;;;17.59;44.27;97495.00;10324005;28;897;-75
2024/01/02 08:22:58;;;;;;;;;;;;;;;17.54;44.19;97497.16;10325294;28;826;-75
2024/01/02 08:27:54;;;;;;;;;;;;;;;17.44;44.63;97497.03;10331470;28;1902;-75
2024/01/02 08:32:50;;;;;;;;;;;;;;;17.36;44.92;97498.59;10332987;28;949;-76
2024/01/02 08:37:46;;;;;;;;;;;;;;;17.41;44.81;97507.81;10332408;28;1420;-75
2024/01/02 08:42:42;;;;;;;;;;;;;;;17.41;44.70;97520.13;10332048;28;835;-74
2024/01/02 08:47:38;;;;;;;;;;;;;;;17.39;45.06;97530.78;10332502;28;1983;-70
2024/01/02 08:52:35;;;;;;;;;;;;;;;17.34;45.07;97532.09;10332824;28;856;-70
2024/01/02 08:57:31;;;;;;;;;;;;;;;17.23;45.48;97533.75;10331407;28;1124;-75
2024/01/02 09:02:32;;;;;;;;;;;;;;;17.35;45.18;97531.16;10331815;28;837;-75
2024/01/02 09:07:28;;;;;;;;;;;;;;;17.40;45.12;97550.06;10331672;28;1898;-74
2024/01/02 09:12:24;;;;;;;;;;;;;;;17.43;45.03;97547.19;10331535;28;850;-75
2024/01/02 09:17:20;;;;;;;;;;;;;;;17.46;45.13;97555.69;10331925;28;850;-74
2024/01/02 09:22:16;;;;;;;;;;;;;;;17.47;45.04;97561.78;10331775;28;821;-74
2024/01/02 09:27:13;;;;;;;;;;;;;;;17.46;44.96;97560.13;10331053;28;1889;-75
2024/01/02 09:32:08;;;;;;;;;;;;;;;17.52;45.06;97555.22;10331497;28;833;-75
2024/01/02 09:37:05;;;;;;;;;;;;;;;17.51;44.96;97563.25;10329212;28;1370;-75
2024/01/02 09:42:01;;;;;;;;;;;;;;;17.50;45.03;97562.41;10331549;28;896;-75
2024/01/02 09:46:57;;;;;;;;;;;;;;;17.54;44.94;97557.75;10330268;28;789;-75
2024/01/02 09:51:53;;;;;;;;;;;;;;;17.50;45.14;97557.16;10330699;28;1971;-75
2024/01/02 09:56:49;;;;;;;;;;;;;;;17.55;44.80;97558.56;10329211;28;1008;-74
2024/01/02 10:01:45;;;;;;;;;;;;;;;17.55;44.83;97548.88;10329905;28;875;-75
2024/01/02 10:06:41;;;;;;;;;;;;;;;17.54;44.86;97541.94;10329677;28;898;-75
2024/01/02 10:11:37;;;;;;;;;;;;;;;17.58;44.84;97543.38;10329213;28;1969;-75
2024/01/02 10:16:33;;;;;;;;;;;;;;;17.56;44.98;97537.41;10329103;28;925;-75
2024/01/02 10:21:32;;;;;;;;;;;;;;;17.58;44.91;97522.31;10329357;28;788;-73
2024/01/02 10:26:27;;;;;;;;;;;;;;;17.46;45.12;97513.56;10328078;28;1112;-73
2024/01/02 10:31:27;;;;;;;;;;;;;;;17.49;45.33;97507.22;10328974;28;1959;-75
2024/01/02 10:36:23;;;;;;;;;;;;;;;17.54;45.42;97499.78;10328722;28;1314;-76
2024/01/02 10:41:18;;;;;;;;;;;;;;;17.62;45.29;97501.81;10328642;28;829;-75
2024/01/02 10:46:14;;;;;;;;;;;;;;;17.62;45.23;97497.38;10328516;28;908;-75
2024/01/02 10:51:10;;;;;;;;;;;;;;;17.63;45.62;97495.59;10327200;28;1906;-75
2024/01/02 10:56:06;;;;;;;;;;;;;;;17.61;45.49;97494.91;10327427;28;865;-75
2024/01/02 11:01:03;;;;;;;;;;;;;;;17.66;45.53;97492.75;10327269;28;848;-76
2024/01/02 11:05:59;;;;;;;;;;;;;;;17.65;45.75;97507.69;10327741;28;918;-75
2024/01/02 11:10:55;;;;;;;;;;;;;;;17.69;45.57;97492.50;10327575;28;1910;-75
2024/01/02 11:15:51;;;;;;;;;;;;;;;17.68;45.67;97488.16;10326898;28;871;-76
2024/01/02 11:20:47;;;;;;;;;;;;;;;17.68;45.75;97486.41;10326738;28;871;-75
2024/01/02 11:25:43;;;;;;;;;;;;;;;17.61;45.66;97481.72;10326454;28;798;-75
2024/01/02 11:30:40;;;;;;;;;;;;;;;17.64;45.73;97447.22;10326532;28;1901;-75
2024/01/02 11:35:36;;;;;;;;;;;;;;;17.67;45.92;97441.72;10325954;28;1034;-74
2024/01/02 11:40:35;;;;;;;;;;;;;;;17.65;45.57;97433.91;10326035;28;818;-78
2024/01/02 11:45:30;;;;;;;;;;;;;;;17.75;45.54;97432.22;10325896;28;774;-75
2024/01/02 11:50:26;;;;;;;;;;;;;;;17.70;45.77;97425.66;10325623;28;1910;-75
2024/01/02 11:55:22;;;;;;;;;;;;;;;17.69;45.86;97426.63;10326209;28;798;-74
2024/01/02 12:00:18;;;;;;;;;;;;;;;17.70;45.87;97415.94;10324169;28;1345;-75
2024/01/02 12:05:14;;;;;;;;;;;;;;;17.69;45.66;97410.81;10325441;28;944;-76
2024/01/02 12:10:10;;;;;;;;;;;;;;;17.66;45.82;97396.09;10325563;28;1898;-76
2024/01/02 12:15:06;;;;;;;;;;;;;;;17.68;45.75;97402.09;10325438;28;884;-75
2024/01/02 12:20:03;;;;;;;;;;;;;;;17.72;45.65;97397.41;10325105;28;901;-75
2024/01/02 12:24:59;;;;;;;;;;;;;;;17.63;45.83;97388.44;10325049;28;862;-81
2024/01/02 12:29:55;;;;;;;;;;;;;;;17.73;45.52;97384.09;10324576;28;1894;-75
2024/01/02 12:34:51;;;;;;;;;;;;;;;17.72;45.57;97400.03;10324884;28;770;-76
2024/01/02 12:39:47;;;;;;;;;;;;;;;17.72;45.57;97371.88;10325076;28;1144;-73
2024/01/02 12:44:46;;;;;;;;;;;;;;;17.71;45.39;97364.09;10324046;28;1216;-81
2024/01/02 12:49:42;;;;;;;;;;;;;;;17.78;45.53;97364.44;10324442;28;1976;-81
2024/01/02 12:54:38;;;;;;;;;;;;;;;17.74;45.49;97374.41;10324461;28;965;-75
2024/01/02 12:59:34;;;;;;;;;;;;;;;17.70;45.59;97362.44;10324973;28;832;-75
2024/01/02 13:04:30;;;;;;;;;;;;;;;17.74;45.64;97356.78;10324276;28;891;-75
2024/01/02 13:09:26;;;;;;;;;;;;;;;17.68;45.89;97352.03;10325046;28;1898;-76
2024/01/02 13:14:22;;;;;;;;;;;;;;;17.72;45.93;97355.25;10331420;28;854;-76
2024/01/02 13:19:18;;;;;;;;;;;;;;;17.68;45.76;97345.91;10330940;28;1026;-75
2024/01/02 13:24:14;;;;;;;;;;;;;;;17.64;45.91;97332.16;10328761;28;889;-75
2024/01/02 13:29:13;;;;;;;;;;;;;;;17.54;45.98;97315.41;10330177;28;1897;-75
2024/01/02 13:34:09;;;;;;;;;;;;;;;17.51;46.16;97305.97;10331330;28;854;-76
2024/01/02 13:39:05;;;;;;;;;;;;;;;17.51;46.12;97294.59;10326331;28;1412;-76
2024/01/02 13:44:00;;;;;;;;;;;;;;;17.60;46.08;97282.47;10330025;28;794;-75
2024/01/02 13:48:58;;;;;;;;;;;;;;;17.58;46.15;97268.59;10329487;28;1910;-76
2024/01/02 13:53:58;;;;;;;;;;;;;;;17.60;45.91;97262.22;10330006;28;818;-76
2024/01/02 13:58:53;;;;;;;;;;;;;;;17.63;46.05;97246.19;10329562;28;956;-77
2024/01/02 14:03:49;;;;;;;;;;;;;;;17.68;46.23;97232.63;10329255;28;751;-75
2024/01/02 14:08:45;;;;;;;;;;;;;;;17.65;46.50;97235.50;10328509;28;1965;-76
2024/01/02 14:13:42;;;;;;;;;;;;;;;17.65;46.24;97225.81;10329645;28;789;-76
2024/01/02 14:18:37;;;;;;;;;;;;;;;17.66;46.50;97218.78;10328081;28;890;-77
2024/01/02 14:23:35;;;;;;;;;;;;;;;17.71;46.46;97198.13;10327229;28;785;-74
2024/01/02 14:28:32;;;;;;;;;;;;;;;17.72;46.33;97200.63;10328167;28;1899;-76
2024/01/02 14:33:28;;;;;;;;;;;;;;;17.70;46.19;97183.28;10328911;28;872;-76
2024/01/02 14:38:24;;;;;;;;;;;;;;;17.79;46.01;97173.75;10328485;28;1101;-76
2024/01/02 14:43:20;;;;;;;;;;;;;;;17.70;46.29;97149.03;10328459;28;875;-76
2024/01/02 14:48:17;;;;;;;;;;;;;;;17.71;46.27;97137.53;10327658;28;1959;-76
2024/01/02 14:53:13;;;;;;;;;;;;;;;17.72;46.23;97132.13;10326792;28;866;-76
2024/01/02 14:58:10;;;;;;;;;;;;;;;17.74;46.03;97127.59;10327792;28;912;-76
2024/01/02 15:03:06;;;;;;;;;;;;;;;17.78;46.01;97116.78;10328132;28;861;-79
2024/01/02 15:08:02;;;;;;;;;;;;;;;17.79;46.13;97105.25;10326772;28;1909;-71
2024/01/02 15:12:58;;;;;;;;;;;;;;;17.80;46.03;97099.06;10327394;28;944;-76
2024/01/02 15:17:54;;;;;;;;;;;;;;;17.72;46.05;97081.25;10326517;28;766;-76
2024/01/02 15:22:50;;;;;;;;;;;;;;;17.74;46.24;97071.44;10326346;28;948;-76
2024/01/02 15:27:46;;;;;;;;;;;;;;;17.81;45.94;97069.13;10326903;28;1890;-76
2024/01/02 15:32:41;;;;;;;;;;;;;;;17.85;45.92;97065.25;10326815;28;773;-76
2024/01/02 15:37:37;;;;;;;;;;;;;;;17.75;45.85;97047.56;10324529;28;1493;-76
2024/01/02 15:42:33;;;;;;;;;;;;;;;17.78;45.96;97043.84;10325353;28;738;-76
2024/01/02 15:47:29;;;;;;;;;;;;;;;17.81;45.89;97054.13;10326208;28;1910;-76
2024/01/02 15:52:25;;;;;;;;;;;;;;;17.81;46.04;97059.41;10325388;28;818;-76
2024/01/02 15:57:21;;;;;;;;;;;;;;;17.82;45.93;97047.09;10325392;28;940;-76
2024/01/02 16:02:17;;;;;;;;;;;;;;;17.78;46.02;97035.09;10325334;28;879;-76
2024/01/02 16:07:13;;;;;;;;;;;;;;;17.79;45.89;97013.03;10326088;28;822;-77
2024/01/02 16:12:09;;;;;;;;;;;;;;;17.80;45.88;97009.50;10318926;28;1960;-76
2024/01/02 16:17:05;;;;;;;;;;;;;;;17.81;45.92;96983.00;10284856;28;1001;-76
2024/01/02 16:22:01;;;;;;;;;;;;;;;17.80;46.02;96997.16;10289884;28;1614;-76
2024/01/02 16:26:57;;;;;;;;;;;;;;;17.87;45.62;96992.19;10324840;28;798;-76
2024/01/02 16:31:53;;;;;;;;;;;;;;;17.84;45.71;96966.94;10291346;28;1951;-76
2024/01/02 16:36:49;;;;;;;;;;;;;;;17.81;45.91;96964.56;10283601;28;1385;-76
2024/01/02 16:41:45;;;;;;;;;;;;;;;17.83;45.96;96946.00;10283368;28;944;-77
2024/01/02 16:46:41;;;;;;;;;;;;;;;17.80;45.96;96927.81;10286763;28;865;-81
2024/01/02 16:51:37;;;;;;;;;;;;;;;17.79;45.92;96923.47;10295666;28;1973;-74
2024/01/02 16:56:33;;;;;;;;;;;;;;;17.83;45.91;96894.13;10291999;28;834;-77
2024/01/02 17:01:29;;;;;;;;;;;;;;;17.81;46.15;96879.41;10290240;28;946;-76
2024/01/02 17:06:25;;;;;;;;;;;;;;;17.80;46.15;96875.94;10291047;28;869;-76
2024/01/02 17:11:21;;;;;;;;;;;;;;;17.86;45.97;96869.31;10290453;28;1953;-78
2024/01/02 17:16:18;;;;;;;;;;;;;;;17.81;45.89;96853.06;10290544;28;748;-78
2024/01/02 17:21:14;;;;;;;;;;;;;;;17.89;45.76;96858.47;10290414;28;1004;-80
2024/01/02 17:26:10;;;;;;;;;;;;;;;17.88;46.04;96823.41;10290152;28;826;-78
2024/01/02 17:31:11;;;;;;;;;;;;;;;17.81;46.08;96810.91;10290002;28;1897;-75
2024/01/02 17:36:07;;;;;;;;;;;;;;;17.82;46.10;96802.88;10289623;28;1306;-76
2024/01/02 17:41:03;;;;;;;;;;;;;;;17.86;45.95;96793.72;10319332;28;1188;-75
2024/01/02 17:45:59;;;;;;;;;;;;;;;17.82;46.01;96780.97;10329979;28;769;-75
2024/01/02 17:50:55;;;;;;;;;;;;;;;17.82;45.77;96791.53;10348435;28;1972;-75
2024/01/02 17:55:55;;;;;;;;;;;;;;;17.73;46.32;96783.41;10371848;28;908;-75
2024/01/02 18:00:52;;;;;;;;;;;;;;;17.74;46.21;96800.09;10369832;28;889;-75
2024/01/02 18:05:48;;;;;;;;;;;;;;;17.74;45.92;96785.09;10372069;28;1566;-76
2024/01/02 18:10:44;;;;;;;;;;;;;;;17.69;46.22;96782.06;10371215;28;1902;-75
2024/01/02 18:15:41;;;;;;;;;;;;;;;17.71;46.22;96782.75;10371145;28;865;-75
2024/01/02 18:20:37;;;;;;;;;;;;;;;17.72;46.11;96771.22;10370062;28;961;-76
2024/01/02 18:25:34;;;;;;;;;;;;;;;17.76;46.04;96761.22;10370717;28;867;-76
2024/01/02 18:30:30;;;;;;;;;;;;;;;17.74;46.14;96768.47;10369824;28;1910;-76
2024/01/02 18:35:25;;;;;;;;;;;;;;;17.73;46.08;96772.06;10370076;28;1307;-76
2024/01/02 18:40:21;;;;;;;;;;;;;;;17.75;46.15;96744.59;10369150;28;1007;-75
2024/01/02 18:45:21;;;;;;;;;;;;;;;17.74;46.02;96750.84;10369260;28;888;-75
2024/01/02 18:50:18;;;;;;;;;;;;;;;17.84;45.89;96752.66;10368943;28;1913;-76
2024/01/02 18:55:14;;;;;;;;;;;;;;;17.74;46.14;96742.13;10369404;28;938;-75
2024/01/02 19:00:11;;;;;;;;;;;;;;;17.79;45.93;96752.22;10369374;28;866;-75
2024/01/02 19:05:08;;;;;;;;;;;;;;;17.80;46.26;96738.97;10367971;28;777;-76
2024/01/02 19:10:04;;;;;;;;;;;;;;;17.84;46.00;96729.81;10368629;28;1903;-76
2024/01/02 19:15:00;;;;;;;;;;;;;;;17.80;46.16;96738.13;10368278;28;872;-75
2024/01/02 19:19:56;;;;;;;;;;;;;;;17.81;46.06;96731.88;10368161;28;1506;-75
2024/01/02 19:24:52;;;;;;;;;;;;;;;17.92;45.95;96747.53;10368784;28;767;-75
2024/01/02 19:29:48;;;;;;;;;;;;;;;17.85;45.90;96771.00;10366916;28;1894;-75
2024/01/02 19:34:44;;;;;;;;;;;;;;;17.89;45.86;96750.44;10366862;28;1033;-76
2024/01/02 19:39:40;;;;;;;;;;;;;;;17.81;46.28;96745.06;10367009;28;1391;-75
2024/01/02 19:44:39;;;;;;;;;;;;;;;17.82;45.93;96734.38;10367821;28;885;-76
2024/01/02 19:49:35;;;;;;;;;;;;;;;17.89;46.02;96737.28;10367556;28;1968;-75
2024/01/02 19:54:30;;;;;;;;;;;;;;;17.84;45.84;96727.19;10366864;28;894;-75
2024/01/02 19:59:26;;;;;;;;;;;;;;;17.83;46.04;96751.84;10366746;28;849;-75
2024/01/02 20:04:22;;;;;;;;;;;;;;;17.89;46.02;96755.72;10366665;28;937;-75
2024/01/02 20:09:18;;;;;;;;;;;;;;;17.93;46.05;96775.56;10367045;28;1897;-76
2024/01/02 20:14:14;;;;;;;;;;;;;;;17.88;45.97;96760.16;10367061;28;837;-76
2024/01/02 20:19:10;;;;;;;;;;;;;;;17.90;46.06;96765.31;10366385;28;897;-75
2024/01/02 20:24:08;;;;;;;;;;;;;;;17.84;46.17;96771.97;10372819;28;854;-75
2024/01/02 20:29:04;;;;;;;;;;;;;;;17.87;46.13;96762.97;10374531;28;1890;-75
2024/01/02 20:34:00;;;;;;;;;;;;;;;17.93;45.84;96779.03;10374437;28;890;-76
2024/01/02 20:38:56;;;;;;;;;;;;;;;17.87;45.78;96773.50;10374303;28;2008;-75
2024/01/02 20:43:52;;;;;;;;;;;;;;;17.86;46.05;96777.91;10374059;28;1131;-75
2024/01/02 20:48:49;;;;;;;;;;;;;;;17.88;45.81;96770.69;10373814;28;1918;-75
2024/01/02 20:53:44;;;;;;;;;;;;;;;17.86;45.91;96782.34;10373664;28;927;-75
2024/01/02 20:58:40;;;;;;;;;;;;;;;17.79;46.11;96799.66;10374141;28;904;-75
2024/01/02 21:03:36;;;;;;;;;;;;;;;17.78;45.97;96803.25;10373986;28;785;-76
2024/01/02 21:08:32;;;;;;;;;;;;;;;17.81;45.92;96795.09;10373611;28;1953;-75
2024/01/02 21:13:37;;;;;;;;;;;;;;;17.73;46.07;96799.22;10373515;28;821;-75
2024/01/02 21:18:33;;;;;;;;;;;;;;;17.79;45.74;96797.00;10372399;28;1292;-75
2024/01/02 21:23:30;;;;;;;;;;;;;;;17.72;46.11;96813.38;10372603;28;906;-75
2024/01/02 21:28:25;;;;;;;;;;;;;;;17.78;45.80;96800.63;10372256;28;2248;-75
2024/01/02 21:33:21;;;;;;;;;;;;;;;17.75;45.94;96791.19;10372649;28;876;-76
2024/01/02 21:38:17;;;;;;;;;;;;;;;17.67;45.93;96791.88;10372463;28;1100;-75
2024/01/02 21:43:14;;;;;;;;;;;;;;;17.66;45.92;96777.06;10371145;28;1091;-75
2024/01/02 21:48:10;;;;;;;;;;;;;;;17.70;45.95;96825.84;10371586;28;1909;-76
2024/01/02 21:53:06;;;;;;;;;;;;;;;17.67;46.01;96838.47;10371939;28;934;-76
2024/01/02 21:58:02;;;;;;;;;;;;;;;17.77;45.41;96820.06;10370618;28;1311;-75
2024/01/02 22:02:58;;;;;;;;;;;;;;;17.68;45.86;96819.91;10371123;28;872;-75
2024/01/02 22:07:54;;;;;;;;;;;;;;;17.58;46.02;96816.44;10370814;28;1898;-75
2024/01/02 22:12:50;;;;;;;;;;;;;;;17.59;45.86;96844.41;10371596;28;857;-75
2024/01/02 22:17:45;;;;;;;;;;;;;;;17.50;45.83;96837.31;10370521;28;848;-76
2024/01/02 22:22:41;;;;;;;;;;;;;;;17.47;45.87;96835.78;10370915;28;912;-75
2024/01/02 22:27:37;;;;;;;;;;;;;;;17.40;45.81;96837.31;10370794;28;809;-75
2024/01/02 22:32:33;;;;;;;;;;;;;;;17.35;45.66;96854.47;10369806;28;1881;-75
2024/01/02 22:37:29;;;;;;;;;;;;;;;17.32;45.82;96858.22;10370750;28;1174;-75
2024/01/02 22:42:25;;;;;;;;;;;;;;;17.25;45.76;96871.06;10370073;28;1004;-75
2024/01/02 22:47:21;;;;;;;;;;;;;;;17.20;45.80;96875.06;10368655;28;905;-75
2024/01/02 22:52:17;;;;;;;;;;;;;;;17.12;46.13;96881.00;10369025;28;1961;-75
2024/01/02 22:57:13;;;;;;;;;;;;;;;17.05;46.18;96869.31;10369483;28;869;-75
2024/01/02 23:02:09;;;;;;;;;;;;;;;17.00;46.11;96853.09;10369466;28;874;-75
2024/01/02 23:07:05;;;;;;;;;;;;;;;16.97;46.16;96877.03;10369112;28;817;-75
2024/01/02 23:12:01;;;;;;;;;;;;;;;16.98;46.03;96878.72;10368428;28;1889;-75
2024/01/02 23:16:57;;;;;;;;;;;;;;;16.88;46.25;96872.59;10368169;28;786;-75
2024/01/02 23:21:53;;;;;;;;;;;;;;;16.84;46.27;96870.19;10367914;28;944;-75
2024/01/02 23:26:49;;;;;;;;;;;;;;;16.83;46.11;96884.31;10367703;28;885;-75
2024/01/02 23:31:45;;;;;;;;;;;;;;;16.84;46.00;96893.84;10367578;28;1955;-75
2024/01/02 23:36:41;;;;;;;;;;;;;;;16.79;46.30;96896.06;10367104;28;1179;-75
2024/01/02 23:41:37;;;;;;;;;;;;;;;16.76;46.36;96893.66;10366903;28;1199;-76
2024/01/02 23:46:33;;;;;;;;;;;;;;;16.74;46.41;96905.25;10367195;28;943;-75
2024/01/02 23:51:28;;;;;;;;;;;;;;;16.69;46.48;96916.19;10367137;28;1913;-75
2024/01/02 23:56:24;;;;;;;;;;;;;;;16.68;46.49;96927.66;10366039;28;814;-75
